createdAt,value
2023-04-30T00:00:37.429Z,11.90
2023-04-30T00:03:07.007Z,11.90
2023-04-30T00:05:35.015Z,11.90
2023-04-30T00:08:02.934Z,11.90
2023-04-30T00:10:30.884Z,11.90
2023-04-30T00:12:58.756Z,11.90
2023-04-30T00:15:26.790Z,11.90
2023-04-30T00:17:54.647Z,11.90
2023-04-30T00:20:23.877Z,11.90
2023-04-30T00:22:51.714Z,11.80
2023-04-30T00:25:21.161Z,11.80
2023-04-30T00:27:48.992Z,11.80
2023-04-30T00:30:16.952Z,11.80
2023-04-30T00:32:45.867Z,11.80
2023-04-30T00:35:14.186Z,11.80
2023-04-30T00:37:43.333Z,11.70
2023-04-30T00:40:12.190Z,11.80
2023-04-30T00:42:40.072Z,11.70
2023-04-30T00:45:09.311Z,11.70
2023-04-30T00:47:37.244Z,11.70
2023-04-30T00:50:05.662Z,11.70
2023-04-30T00:52:33.688Z,11.70
2023-04-30T00:55:03.138Z,11.80
2023-04-30T00:57:31.527Z,11.70
2023-04-30T00:59:59.906Z,11.70
2023-04-30T01:02:27.897Z,11.80
2023-04-30T01:04:57.276Z,11.80
2023-04-30T01:07:28.335Z,11.70
2023-04-30T01:09:56.765Z,11.70
2023-04-30T01:12:37.099Z,11.70
2023-04-30T01:15:10.424Z,11.70
2023-04-30T01:17:42.915Z,11.70
2023-04-30T01:20:11.944Z,11.70
2023-04-30T01:22:48.639Z,11.70
2023-04-30T01:25:31.084Z,11.70
2023-04-30T01:28:10.272Z,11.60
2023-04-30T01:30:40.606Z,11.60
2023-04-30T01:33:08.576Z,11.60
2023-04-30T01:35:55.228Z,11.60
2023-04-30T01:38:35.368Z,11.60
2023-04-30T01:41:11.979Z,11.60
2023-04-30T01:43:56.181Z,11.60
2023-04-30T01:46:28.381Z,11.60
2023-04-30T01:49:05.412Z,11.60
2023-04-30T01:51:40.921Z,11.60
2023-04-30T01:54:17.765Z,11.60
2023-04-30T01:56:54.846Z,11.60
2023-04-30T01:59:25.403Z,11.60
2023-04-30T02:01:53.782Z,11.60
2023-04-30T02:04:21.739Z,11.60
2023-04-30T02:06:49.644Z,11.60
2023-04-30T02:09:17.545Z,11.60
2023-04-30T02:11:45.481Z,11.60
2023-04-30T02:14:13.326Z,11.60
2023-04-30T02:16:42.747Z,11.60
2023-04-30T02:19:11.119Z,11.60
2023-04-30T02:21:38.961Z,11.60
2023-04-30T02:24:07.344Z,11.60
2023-04-30T02:26:35.234Z,11.60
2023-04-30T02:29:03.161Z,11.60
2023-04-30T02:31:31.024Z,11.60
2023-04-30T02:34:00.185Z,11.60
2023-04-30T02:36:28.230Z,11.60
2023-04-30T02:38:56.106Z,11.50
2023-04-30T02:41:24.372Z,11.50
2023-04-30T02:43:52.789Z,11.60
2023-04-30T02:46:20.931Z,11.60
2023-04-30T02:48:49.007Z,11.50
2023-04-30T02:51:18.159Z,11.50
2023-04-30T02:53:46.068Z,11.50
2023-04-30T02:56:13.977Z,11.50
2023-04-30T02:58:41.933Z,11.50
2023-04-30T03:01:09.799Z,11.50
2023-04-30T03:03:37.771Z,11.40
2023-04-30T03:06:06.103Z,11.40
2023-04-30T03:08:35.412Z,11.40
2023-04-30T03:11:03.455Z,11.40
2023-04-30T03:13:31.332Z,11.40
2023-04-30T03:16:00.286Z,11.50
2023-04-30T03:18:28.447Z,11.40
2023-04-30T03:20:56.335Z,11.40
2023-04-30T03:23:24.432Z,11.40
2023-04-30T03:25:53.885Z,11.40
2023-04-30T03:28:22.275Z,11.40
2023-04-30T03:30:50.184Z,11.40
2023-04-30T03:33:18.107Z,11.40
2023-04-30T03:35:46.014Z,11.40
2023-04-30T03:38:14.067Z,11.40
2023-04-30T03:40:42.298Z,11.30
2023-04-30T03:43:11.526Z,11.30
2023-04-30T03:45:39.326Z,11.30
2023-04-30T03:48:07.429Z,11.30
2023-04-30T03:50:35.553Z,11.30
2023-04-30T03:53:03.459Z,11.30
2023-04-30T03:55:34.900Z,11.30
2023-04-30T03:58:02.981Z,11.30
2023-04-30T04:00:32.275Z,11.30
2023-04-30T04:03:00.356Z,11.30
2023-04-30T04:05:29.279Z,11.20
2023-04-30T04:07:57.123Z,11.30
2023-04-30T04:10:24.964Z,11.30
2023-04-30T04:12:52.811Z,11.30
2023-04-30T04:15:20.764Z,11.30
2023-04-30T04:17:50.097Z,11.30
2023-04-30T04:20:18.885Z,11.20
2023-04-30T04:22:46.704Z,11.20
2023-04-30T04:25:15.150Z,11.20
2023-04-30T04:27:43.068Z,11.20
2023-04-30T04:30:11.846Z,11.20
2023-04-30T04:32:49.521Z,11.20
2023-04-30T04:35:19.870Z,11.20
2023-04-30T04:37:47.914Z,11.20
2023-04-30T04:40:15.812Z,11.20
2023-04-30T04:42:43.672Z,11.20
2023-04-30T04:45:12.130Z,11.20
2023-04-30T04:47:40.035Z,11.20
2023-04-30T04:50:09.105Z,11.20
2023-04-30T04:52:39.031Z,11.20
2023-04-30T04:55:08.214Z,11.30
2023-04-30T04:57:36.274Z,11.30
2023-04-30T05:00:06.374Z,11.30
2023-04-30T05:02:34.335Z,11.30
2023-04-30T05:05:03.182Z,11.30
2023-04-30T05:07:31.192Z,11.30
2023-04-30T05:10:00.456Z,11.40
2023-04-30T05:12:28.275Z,11.40
2023-04-30T05:14:56.230Z,11.40
2023-04-30T05:17:26.291Z,11.40
2023-04-30T05:19:54.828Z,11.40
2023-04-30T05:22:23.066Z,11.50
2023-04-30T05:24:52.987Z,11.50
2023-04-30T05:27:22.234Z,11.50
2023-04-30T05:29:50.073Z,11.50
2023-04-30T05:32:17.979Z,11.60
2023-04-30T05:34:45.964Z,11.60
2023-04-30T05:37:14.502Z,11.70
2023-04-30T05:39:42.368Z,11.70
2023-04-30T05:42:10.191Z,11.80
2023-04-30T05:44:39.370Z,11.80
2023-04-30T05:47:07.240Z,11.90
2023-04-30T05:49:36.290Z,11.90
2023-04-30T05:52:04.558Z,12.00
2023-04-30T05:54:32.631Z,12.00
2023-04-30T05:57:00.590Z,12.10
2023-04-30T05:59:28.463Z,12.10
2023-04-30T06:01:58.258Z,12.20
2023-04-30T06:04:26.204Z,12.20
2023-04-30T06:06:54.135Z,12.30
2023-04-30T06:09:22.583Z,12.30
2023-04-30T06:11:52.088Z,12.30
2023-04-30T06:14:22.711Z,12.40
2023-04-30T06:16:50.966Z,12.40
2023-04-30T06:19:20.839Z,12.50
2023-04-30T06:21:48.884Z,12.50
2023-04-30T06:24:16.742Z,12.70
2023-04-30T06:26:45.731Z,12.70
2023-04-30T06:29:13.903Z,12.70
2023-04-30T06:31:41.817Z,12.70
2023-04-30T06:34:09.833Z,12.80
2023-04-30T06:36:39.079Z,12.80
2023-04-30T06:39:07.028Z,12.80
2023-04-30T06:41:34.956Z,12.90
2023-04-30T06:44:02.777Z,13.00
2023-04-30T06:46:30.998Z,12.90
2023-04-30T06:48:58.902Z,13.00
2023-04-30T06:51:26.779Z,13.00
2023-04-30T06:53:56.088Z,13.10
2023-04-30T06:56:25.050Z,13.30
2023-04-30T06:58:52.838Z,13.50
2023-04-30T07:01:20.799Z,13.50
2023-04-30T07:03:48.954Z,13.70
2023-04-30T07:06:16.962Z,13.70
2023-04-30T07:08:44.822Z,14.00
2023-04-30T07:11:14.085Z,14.00
2023-04-30T07:13:41.968Z,14.10
2023-04-30T07:16:10.884Z,14.10
2023-04-30T07:18:39.568Z,14.10
2023-04-30T07:21:08.239Z,14.20
2023-04-30T07:23:36.364Z,14.30
2023-04-30T07:26:04.254Z,14.20
2023-04-30T07:28:33.493Z,14.20
2023-04-30T07:31:02.060Z,14.30
2023-04-30T07:33:30.421Z,14.50
2023-04-30T07:35:58.990Z,14.60
2023-04-30T07:38:26.885Z,14.70
2023-04-30T07:40:54.720Z,14.70
2023-04-30T07:43:22.568Z,14.90
2023-04-30T07:45:53.432Z,15.00
2023-04-30T07:48:22.066Z,15.10
2023-04-30T07:50:52.093Z,15.20
2023-04-30T07:53:20.686Z,15.40
2023-04-30T07:55:48.886Z,15.60
2023-04-30T07:58:16.726Z,15.70
2023-04-30T08:00:44.982Z,15.90
2023-04-30T08:03:14.257Z,16.10
2023-04-30T08:05:42.167Z,16.10
2023-04-30T08:08:10.161Z,16.30
2023-04-30T08:10:38.324Z,16.70
2023-04-30T08:13:06.543Z,17.00
2023-04-30T08:15:35.194Z,17.10
2023-04-30T08:18:03.967Z,17.20
2023-04-30T08:20:33.428Z,17.50
2023-04-30T08:23:01.628Z,17.80
2023-04-30T08:25:29.429Z,18.20
2023-04-30T08:27:57.307Z,18.60
2023-04-30T08:30:25.709Z,18.60
2023-04-30T08:32:55.969Z,19.00
2023-04-30T08:35:25.700Z,19.30
2023-04-30T08:37:55.353Z,19.40
2023-04-30T08:40:33.782Z,19.60
2023-04-30T08:43:13.349Z,19.70
2023-04-30T08:45:41.870Z,19.70
2023-04-30T08:48:14.046Z,19.80
2023-04-30T08:50:42.255Z,20.10
2023-04-30T08:53:12.286Z,20.30
2023-04-30T08:55:41.211Z,20.60
2023-04-30T08:58:10.320Z,20.60
2023-04-30T09:00:40.472Z,20.60
2023-04-30T09:03:09.245Z,19.90
2023-04-30T09:05:38.754Z,19.50
2023-04-30T09:08:08.686Z,19.30
2023-04-30T09:10:38.082Z,19.00
2023-04-30T09:13:08.292Z,19.40
2023-04-30T09:15:37.710Z,19.10
2023-04-30T09:18:14.484Z,18.80
2023-04-30T09:20:56.956Z,18.50
2023-04-30T09:23:25.532Z,18.20
2023-04-30T09:25:54.910Z,17.90
2023-04-30T09:28:25.459Z,17.50
2023-04-30T09:30:54.227Z,17.20
2023-04-30T09:33:22.108Z,17.20
2023-04-30T09:35:50.385Z,17.20
2023-04-30T09:38:29.660Z,17.10
2023-04-30T09:41:00.051Z,17.10
2023-04-30T09:43:28.319Z,17.20
2023-04-30T09:45:56.219Z,17.30
2023-04-30T09:48:25.462Z,17.30
2023-04-30T09:50:53.687Z,17.20
2023-04-30T09:53:23.629Z,17.20
2023-04-30T09:55:52.734Z,17.30
2023-04-30T09:58:22.219Z,17.60
2023-04-30T10:00:52.593Z,17.80
2023-04-30T10:03:22.924Z,17.90
2023-04-30T10:05:53.144Z,18.00
2023-04-30T10:08:26.894Z,18.00
2023-04-30T10:11:04.686Z,18.00
2023-04-30T10:13:37.665Z,18.10
2023-04-30T10:16:13.080Z,18.40
2023-04-30T10:18:43.569Z,18.50
2023-04-30T10:21:17.208Z,18.30
2023-04-30T10:23:45.983Z,18.10
2023-04-30T10:26:16.690Z,17.90
2023-04-30T10:28:47.167Z,17.70
2023-04-30T10:31:15.934Z,17.70
2023-04-30T10:33:52.176Z,17.70
2023-04-30T10:36:27.765Z,17.40
2023-04-30T10:38:56.201Z,17.40
2023-04-30T10:41:25.517Z,17.30
2023-04-30T10:43:58.597Z,17.50
2023-04-30T10:46:28.445Z,17.60
2023-04-30T10:48:56.559Z,17.60
2023-04-30T10:51:24.703Z,17.70
2023-04-30T10:53:53.574Z,17.90
2023-04-30T10:56:32.700Z,18.10
2023-04-30T10:59:02.393Z,18.30
2023-04-30T11:01:31.095Z,18.40
2023-04-30T11:04:08.102Z,18.30
2023-04-30T11:06:57.134Z,18.30
2023-04-30T11:09:38.552Z,18.20
2023-04-30T11:12:11.340Z,18.40
2023-04-30T11:14:44.238Z,18.30
2023-04-30T11:17:13.546Z,18.00
2023-04-30T11:19:48.814Z,18.20
2023-04-30T11:22:18.244Z,18.90
2023-04-30T11:25:02.070Z,19.20
2023-04-30T11:27:31.235Z,19.20
2023-04-30T11:30:00.852Z,19.10
2023-04-30T11:32:34.230Z,18.60
2023-04-30T11:35:04.225Z,18.20
2023-04-30T11:37:33.905Z,18.00
2023-04-30T11:40:03.876Z,18.30
2023-04-30T11:42:34.467Z,18.70
2023-04-30T11:45:11.200Z,18.60
2023-04-30T11:47:43.711Z,18.30
2023-04-30T11:50:13.004Z,17.80
2023-04-30T11:52:41.253Z,17.80
2023-04-30T11:55:16.583Z,18.10
2023-04-30T11:57:45.327Z,18.60
2023-04-30T12:00:16.176Z,19.00
2023-04-30T12:02:47.146Z,19.00
2023-04-30T12:05:17.153Z,18.90
2023-04-30T12:07:49.813Z,18.80
2023-04-30T12:10:19.688Z,18.80
2023-04-30T12:12:50.704Z,18.90
2023-04-30T12:15:26.376Z,18.90
2023-04-30T12:17:56.344Z,19.00
2023-04-30T12:20:26.528Z,18.80
2023-04-30T12:22:55.280Z,18.90
2023-04-30T12:25:24.157Z,18.60
2023-04-30T12:27:53.776Z,18.50
2023-04-30T12:30:25.330Z,18.60
2023-04-30T12:32:54.768Z,18.70
2023-04-30T12:35:24.375Z,18.80
2023-04-30T12:37:53.744Z,19.00
2023-04-30T12:40:22.972Z,19.30
2023-04-30T12:42:51.613Z,19.70
2023-04-30T12:45:45.755Z,19.90
2023-04-30T12:48:14.627Z,20.20
2023-04-30T12:50:42.983Z,20.30
2023-04-30T12:53:10.941Z,20.40
2023-04-30T12:55:39.743Z,20.70
2023-04-30T12:58:08.919Z,20.40
2023-04-30T13:00:51.364Z,19.90
2023-04-30T13:03:21.974Z,19.80
2023-04-30T13:05:54.738Z,19.70
2023-04-30T13:08:22.888Z,19.60
2023-04-30T13:10:51.771Z,19.20
2023-04-30T13:13:20.342Z,18.90
2023-04-30T13:15:49.894Z,18.60
2023-04-30T13:18:17.795Z,18.50
2023-04-30T13:20:46.173Z,18.80
2023-04-30T13:23:14.208Z,19.40
2023-04-30T13:25:42.786Z,19.90
2023-04-30T13:28:10.812Z,20.40
2023-04-30T13:30:39.160Z,20.70
2023-04-30T13:33:08.856Z,21.10
2023-04-30T13:35:37.104Z,20.80
2023-04-30T13:38:05.049Z,20.60
2023-04-30T13:40:33.000Z,20.60
2023-04-30T13:43:00.914Z,20.40
2023-04-30T13:45:29.031Z,19.90
2023-04-30T13:47:57.532Z,19.90
2023-04-30T13:50:26.931Z,20.30
2023-04-30T13:52:54.777Z,20.50
2023-04-30T13:55:23.142Z,20.50
2023-04-30T13:57:51.175Z,20.60
2023-04-30T14:00:21.474Z,20.70
2023-04-30T14:02:49.385Z,20.80
2023-04-30T14:05:17.446Z,20.90
2023-04-30T14:07:46.654Z,20.80
2023-04-30T14:10:14.595Z,21.00
2023-04-30T14:12:42.537Z,21.10
2023-04-30T14:15:11.510Z,21.10
2023-04-30T14:17:39.612Z,21.30
2023-04-30T14:20:09.010Z,21.20
2023-04-30T14:22:38.556Z,21.20
2023-04-30T14:25:09.525Z,21.40
2023-04-30T14:27:38.024Z,21.50
2023-04-30T14:30:07.934Z,21.40
2023-04-30T14:32:39.176Z,21.50
2023-04-30T14:35:11.967Z,21.30
2023-04-30T14:37:39.904Z,21.10
2023-04-30T14:40:10.826Z,20.80
2023-04-30T14:42:38.750Z,20.60
2023-04-30T14:45:08.118Z,20.70
2023-04-30T14:47:36.043Z,20.60
2023-04-30T14:50:04.344Z,20.40
2023-04-30T14:52:32.364Z,20.20
2023-04-30T14:55:02.541Z,20.10
2023-04-30T14:57:31.974Z,20.10
2023-04-30T15:00:01.013Z,20.10
2023-04-30T15:02:29.158Z,20.00
2023-04-30T15:04:57.287Z,19.80
2023-04-30T15:07:25.228Z,19.40
2023-04-30T15:09:53.575Z,19.40
2023-04-30T15:12:22.336Z,19.30
2023-04-30T15:14:51.599Z,19.30
2023-04-30T15:17:20.851Z,19.30
2023-04-30T15:19:48.787Z,19.40
2023-04-30T15:22:17.002Z,19.70
2023-04-30T15:24:45.005Z,19.90
2023-04-30T15:27:12.925Z,20.20
2023-04-30T15:29:41.448Z,20.30
2023-04-30T15:32:10.702Z,20.30
2023-04-30T15:34:38.851Z,20.00
2023-04-30T15:37:07.080Z,19.70
2023-04-30T15:39:35.980Z,19.70
2023-04-30T15:42:04.186Z,19.60
2023-04-30T15:44:32.114Z,19.60
2023-04-30T15:47:00.087Z,19.40
2023-04-30T15:49:29.414Z,19.30
2023-04-30T15:51:57.342Z,19.10
2023-04-30T15:54:25.230Z,19.20
2023-04-30T15:56:53.460Z,19.20
2023-04-30T15:59:21.422Z,19.30
2023-04-30T16:01:49.319Z,19.50
2023-04-30T16:04:17.332Z,19.60
2023-04-30T16:06:47.123Z,19.80
2023-04-30T16:09:17.405Z,19.90
2023-04-30T16:11:45.295Z,20.10
2023-04-30T16:14:13.259Z,20.20
2023-04-30T16:16:41.196Z,20.30
2023-04-30T16:19:09.592Z,20.30
2023-04-30T16:21:38.583Z,20.20
2023-04-30T16:24:08.725Z,20.40
2023-04-30T16:26:36.668Z,20.50
2023-04-30T16:29:06.188Z,20.80
2023-04-30T16:31:34.351Z,21.20
2023-04-30T16:34:02.458Z,21.40
2023-04-30T16:36:31.143Z,21.40
2023-04-30T16:38:58.953Z,21.30
2023-04-30T16:41:28.201Z,21.00
2023-04-30T16:43:56.109Z,20.90
2023-04-30T16:46:24.072Z,21.10
2023-04-30T16:48:51.945Z,21.00
2023-04-30T16:51:19.847Z,20.70
2023-04-30T16:53:47.826Z,20.50
2023-04-30T16:56:15.691Z,20.40
2023-04-30T16:58:45.430Z,20.30
2023-04-30T17:01:13.315Z,20.10
2023-04-30T17:03:41.299Z,20.00
2023-04-30T17:06:09.692Z,19.70
2023-04-30T17:08:38.729Z,19.50
2023-04-30T17:11:07.208Z,19.40
2023-04-30T17:13:37.447Z,19.30
2023-04-30T17:16:07.005Z,19.30
2023-04-30T17:18:34.834Z,19.10
2023-04-30T17:21:02.733Z,18.90
2023-04-30T17:23:30.548Z,18.80
2023-04-30T17:25:58.524Z,18.70
2023-04-30T17:28:26.676Z,18.60
2023-04-30T17:30:54.764Z,18.50
2023-04-30T17:33:25.288Z,18.40
2023-04-30T17:35:54.496Z,18.30
2023-04-30T17:38:22.368Z,18.30
2023-04-30T17:40:50.329Z,18.30
2023-04-30T17:43:18.191Z,18.20
2023-04-30T17:45:46.413Z,18.20
2023-04-30T17:48:14.269Z,18.20
2023-04-30T17:50:43.788Z,18.10
2023-04-30T17:53:11.652Z,17.90
2023-04-30T17:55:39.529Z,17.80
2023-04-30T17:58:10.096Z,17.70
2023-04-30T18:00:40.089Z,17.60
2023-04-30T18:03:08.242Z,17.60
2023-04-30T18:05:36.312Z,17.50
2023-04-30T18:08:06.565Z,17.30
2023-04-30T18:10:34.597Z,17.20
2023-04-30T18:13:02.778Z,17.20
2023-04-30T18:15:30.682Z,17.10
2023-04-30T18:17:59.348Z,17.00
2023-04-30T18:20:28.012Z,17.00
2023-04-30T18:22:55.966Z,16.90
2023-04-30T18:25:25.259Z,16.90
2023-04-30T18:27:53.135Z,16.80
2023-04-30T18:30:21.035Z,16.80
2023-04-30T18:32:48.992Z,16.70
2023-04-30T18:35:16.977Z,16.60
2023-04-30T18:37:44.935Z,16.40
2023-04-30T18:40:13.159Z,16.30
2023-04-30T18:42:42.939Z,16.30
2023-04-30T18:45:11.734Z,16.20
2023-04-30T18:47:39.654Z,16.10
2023-04-30T18:50:10.633Z,15.90
2023-04-30T18:52:38.554Z,15.80
2023-04-30T18:55:07.658Z,15.70
2023-04-30T18:57:36.652Z,15.60
2023-04-30T19:00:06.894Z,15.50
2023-04-30T19:02:34.814Z,15.40
2023-04-30T19:05:02.870Z,15.40
2023-04-30T19:07:30.774Z,15.30
2023-04-30T19:09:59.761Z,15.30
2023-04-30T19:12:27.629Z,15.20
2023-04-30T19:14:55.510Z,15.10
2023-04-30T19:17:25.727Z,15.00
2023-04-30T19:19:53.800Z,14.90
2023-04-30T19:22:21.823Z,14.90
2023-04-30T19:24:49.618Z,14.80
2023-04-30T19:27:17.456Z,14.70
2023-04-30T19:29:45.341Z,14.70
2023-04-30T19:32:13.827Z,14.70
2023-04-30T19:34:43.165Z,14.60
2023-04-30T19:37:11.106Z,14.60
2023-04-30T19:39:40.207Z,14.60
2023-04-30T19:42:09.117Z,14.50
2023-04-30T19:44:37.122Z,14.50
2023-04-30T19:47:05.212Z,14.40
2023-04-30T19:49:35.112Z,14.40
2023-04-30T19:52:04.571Z,14.40
2023-04-30T19:54:32.414Z,14.40
2023-04-30T19:57:02.014Z,14.40
2023-04-30T19:59:30.487Z,14.40
2023-04-30T20:01:59.449Z,14.40
2023-04-30T20:04:27.500Z,14.40
2023-04-30T20:06:57.381Z,14.40
2023-04-30T20:09:26.788Z,14.30
2023-04-30T20:11:55.941Z,14.20
2023-04-30T20:14:24.565Z,14.10
2023-04-30T20:16:54.321Z,14.00
2023-04-30T20:19:23.072Z,13.90
2023-04-30T20:21:52.026Z,13.80
2023-04-30T20:24:21.602Z,13.80
2023-04-30T20:26:51.323Z,13.70
2023-04-30T20:29:20.637Z,13.70
2023-04-30T20:31:48.663Z,13.70
2023-04-30T20:34:16.697Z,13.70
2023-04-30T20:36:44.942Z,13.80
2023-04-30T20:39:14.534Z,13.80
2023-04-30T20:41:43.583Z,13.80
2023-04-30T20:44:12.814Z,13.80
2023-04-30T20:46:40.867Z,13.70
2023-04-30T20:49:11.083Z,13.80
2023-04-30T20:51:39.578Z,13.80
2023-04-30T20:54:08.658Z,13.70
2023-04-30T20:56:36.682Z,13.60
2023-04-30T20:59:05.852Z,13.60
2023-04-30T21:01:35.202Z,13.50
2023-04-30T21:04:03.673Z,13.50
2023-04-30T21:06:32.067Z,13.40
2023-04-30T21:08:59.970Z,13.40
2023-04-30T21:11:28.891Z,13.40
2023-04-30T21:13:57.520Z,13.30
2023-04-30T21:16:25.541Z,13.30
2023-04-30T21:18:54.809Z,13.30
2023-04-30T21:21:23.226Z,13.20
2023-04-30T21:23:52.211Z,13.20
2023-04-30T21:26:20.372Z,13.10
2023-04-30T21:28:48.296Z,13.10
2023-04-30T21:31:16.420Z,13.10
2023-04-30T21:33:46.041Z,13.00
2023-04-30T21:36:16.397Z,12.90
2023-04-30T21:38:44.297Z,12.90
2023-04-30T21:41:15.234Z,13.00
2023-04-30T21:43:43.464Z,13.00
2023-04-30T21:46:13.391Z,13.00
2023-04-30T21:48:41.466Z,13.00
2023-04-30T21:51:12.411Z,13.00
2023-04-30T21:53:41.611Z,13.00
2023-04-30T21:56:10.188Z,13.00
2023-04-30T21:58:38.567Z,13.10
2023-04-30T22:01:07.293Z,13.10
2023-04-30T22:03:35.547Z,13.10
2023-04-30T22:06:03.746Z,13.10
2023-04-30T22:08:31.982Z,13.20
2023-04-30T22:11:01.892Z,13.10
2023-04-30T22:13:30.211Z,13.20
2023-04-30T22:15:58.270Z,13.20
2023-04-30T22:18:26.155Z,13.10
2023-04-30T22:20:54.332Z,13.10
2023-04-30T22:23:22.304Z,13.10
2023-04-30T22:25:50.502Z,13.10
2023-04-30T22:28:20.978Z,13.10
2023-04-30T22:30:48.896Z,13.10
2023-04-30T22:33:17.271Z,13.10
2023-04-30T22:35:45.273Z,13.10
2023-04-30T22:38:13.185Z,13.00
2023-04-30T22:40:41.900Z,13.00
2023-04-30T22:43:10.930Z,13.00
2023-04-30T22:45:41.035Z,12.90
2023-04-30T22:48:09.629Z,12.90
2023-04-30T22:50:37.819Z,12.80
2023-04-30T22:53:05.803Z,12.80
2023-04-30T22:55:34.913Z,12.80
2023-04-30T22:58:02.842Z,12.70
2023-04-30T23:00:30.653Z,12.70
2023-04-30T23:03:00.122Z,12.60
2023-04-30T23:05:28.114Z,12.60
2023-04-30T23:07:55.917Z,12.50
2023-04-30T23:10:23.839Z,12.50
2023-04-30T23:12:55.342Z,12.50
2023-04-30T23:15:23.373Z,12.50
2023-04-30T23:17:51.497Z,12.50
2023-04-30T23:20:20.861Z,12.40
2023-04-30T23:22:48.708Z,12.30
2023-04-30T23:25:16.868Z,12.30
2023-04-30T23:27:46.256Z,12.30
2023-04-30T23:30:14.939Z,12.30
2023-04-30T23:32:43.034Z,12.20
2023-04-30T23:35:11.036Z,12.20
2023-04-30T23:37:40.186Z,12.20
2023-04-30T23:40:09.720Z,12.20
2023-04-30T23:42:37.648Z,12.10
2023-04-30T23:45:06.335Z,12.10
2023-04-30T23:47:36.131Z,12.10
2023-04-30T23:50:04.280Z,12.10
2023-04-30T23:52:32.535Z,12.10
2023-04-30T23:55:01.763Z,12.10
2023-04-30T23:57:29.632Z,12.10
2023-04-30T23:59:58.377Z,12.10
